sensor_id;sensor_type;location;lat;lon;timestamp;P1;durP1;ratioP1;P2;durP2;ratioP2
69401;SDS011;56589;51.992;5.924;2023-08-30T00:00:18;8.25;;;5.43;;
69401;SDS011;56589;51.992;5.924;2023-08-30T00:02:45;8.82;;;5.60;;
69401;SDS011;56589;51.992;5.924;2023-08-30T00:05:11;7.65;;;5.18;;
69401;SDS011;56589;51.992;5.924;2023-08-30T00:07:41;7.05;;;5.40;;
69401;SDS011;56589;51.992;5.924;2023-08-30T00:10:08;9.43;;;5.70;;
69401;SDS011;56589;51.992;5.924;2023-08-30T00:12:35;9.30;;;5.93;;
69401;SDS011;56589;51.992;5.924;2023-08-30T00:15:02;7.80;;;5.88;;
69401;SDS011;56589;51.992;5.924;2023-08-30T00:17:32;8.63;;;5.38;;
69401;SDS011;56589;51.992;5.924;2023-08-30T00:19:58;7.30;;;5.50;;
69401;SDS011;56589;51.992;5.924;2023-08-30T00:22:26;8.75;;;5.80;;
69401;SDS011;56589;51.992;5.924;2023-08-30T00:24:55;8.63;;;5.90;;
69401;SDS011;56589;51.992;5.924;2023-08-30T00:27:24;8.38;;;5.43;;
69401;SDS011;56589;51.992;5.924;2023-08-30T00:29:50;7.57;;;5.13;;
69401;SDS011;56589;51.992;5.924;2023-08-30T00:32:16;7.75;;;5.15;;
69401;SDS011;56589;51.992;5.924;2023-08-30T00:34:42;10.77;;;5.75;;
69401;SDS011;56589;51.992;5.924;2023-08-30T00:37:08;8.43;;;5.07;;
69401;SDS011;56589;51.992;5.924;2023-08-30T00:39:37;7.47;;;5.47;;
69401;SDS011;56589;51.992;5.924;2023-08-30T00:42:07;7.78;;;5.45;;
69401;SDS011;56589;51.992;5.924;2023-08-30T00:44:33;8.02;;;5.10;;
69401;SDS011;56589;51.992;5.924;2023-08-30T00:47:01;6.68;;;4.80;;
69401;SDS011;56589;51.992;5.924;2023-08-30T00:49:30;11.10;;;5.50;;
69401;SDS011;56589;51.992;5.924;2023-08-30T00:52:00;8.55;;;5.38;;
69401;SDS011;56589;51.992;5.924;2023-08-30T00:54:32;7.20;;;5.25;;
69401;SDS011;56589;51.992;5.924;2023-08-30T00:57:00;7.72;;;5.43;;
69401;SDS011;56589;51.992;5.924;2023-08-30T00:59:32;7.07;;;5.47;;
69401;SDS011;56589;51.992;5.924;2023-08-30T01:02:00;7.28;;;4.80;;
69401;SDS011;56589;51.992;5.924;2023-08-30T01:04:30;8.57;;;5.80;;
69401;SDS011;56589;51.992;5.924;2023-08-30T01:06:56;6.60;;;5.43;;
69401;SDS011;56589;51.992;5.924;2023-08-30T01:09:25;9.50;;;5.57;;
69401;SDS011;56589;51.992;5.924;2023-08-30T01:11:53;7.30;;;5.60;;
69401;SDS011;56589;51.992;5.924;2023-08-30T01:14:33;9.18;;;5.38;;
69401;SDS011;56589;51.992;5.924;2023-08-30T01:17:10;11.45;;;5.30;;
69401;SDS011;56589;51.992;5.924;2023-08-30T01:19:42;6.80;;;5.40;;
69401;SDS011;56589;51.992;5.924;2023-08-30T01:22:19;9.88;;;5.38;;
69401;SDS011;56589;51.992;5.924;2023-08-30T01:25:04;6.82;;;5.25;;
69401;SDS011;56589;51.992;5.924;2023-08-30T01:27:53;7.93;;;5.18;;
69401;SDS011;56589;51.992;5.924;2023-08-30T01:30:22;7.28;;;5.32;;
69401;SDS011;56589;51.992;5.924;2023-08-30T01:32:52;7.78;;;5.45;;
69401;SDS011;56589;51.992;5.924;2023-08-30T01:35:20;7.35;;;5.80;;
69401;SDS011;56589;51.992;5.924;2023-08-30T01:37:48;8.07;;;5.30;;
69401;SDS011;56589;51.992;5.924;2023-08-30T01:40:16;10.07;;;5.70;;
69401;SDS011;56589;51.992;5.924;2023-08-30T01:42:45;8.25;;;5.85;;
69401;SDS011;56589;51.992;5.924;2023-08-30T01:45:16;11.77;;;6.65;;
69401;SDS011;56589;51.992;5.924;2023-08-30T01:47:45;15.48;;;8.27;;
69401;SDS011;56589;51.992;5.924;2023-08-30T01:50:14;9.90;;;6.65;;
69401;SDS011;56589;51.992;5.924;2023-08-30T01:52:42;7.32;;;5.03;;
69401;SDS011;56589;51.992;5.924;2023-08-30T01:55:08;9.05;;;5.85;;
69401;SDS011;56589;51.992;5.924;2023-08-30T01:57:39;6.90;;;5.18;;
69401;SDS011;56589;51.992;5.924;2023-08-30T02:00:06;9.00;;;5.60;;
69401;SDS011;56589;51.992;5.924;2023-08-30T02:02:36;9.32;;;5.38;;
69401;SDS011;56589;51.992;5.924;2023-08-30T02:05:04;7.40;;;5.63;;
69401;SDS011;56589;51.992;5.924;2023-08-30T02:07:33;7.18;;;5.43;;
69401;SDS011;56589;51.992;5.924;2023-08-30T02:10:12;11.40;;;5.78;;
69401;SDS011;56589;51.992;5.924;2023-08-30T02:12:47;8.77;;;5.65;;
69401;SDS011;56589;51.992;5.924;2023-08-30T02:15:17;9.23;;;6.13;;
69401;SDS011;56589;51.992;5.924;2023-08-30T02:17:49;8.68;;;5.80;;
69401;SDS011;56589;51.992;5.924;2023-08-30T02:20:16;10.73;;;5.32;;
69401;SDS011;56589;51.992;5.924;2023-08-30T02:22:42;8.82;;;5.30;;
69401;SDS011;56589;51.992;5.924;2023-08-30T02:25:09;7.75;;;5.80;;
69401;SDS011;56589;51.992;5.924;2023-08-30T02:27:35;9.88;;;6.82;;
69401;SDS011;56589;51.992;5.924;2023-08-30T02:30:02;12.15;;;6.35;;
69401;SDS011;56589;51.992;5.924;2023-08-30T02:32:32;9.70;;;6.43;;
69401;SDS011;56589;51.992;5.924;2023-08-30T02:35:04;8.55;;;5.40;;
69401;SDS011;56589;51.992;5.924;2023-08-30T02:37:32;7.40;;;5.00;;
69401;SDS011;56589;51.992;5.924;2023-08-30T02:39:59;8.85;;;5.30;;
69401;SDS011;56589;51.992;5.924;2023-08-30T02:42:27;7.75;;;5.05;;
69401;SDS011;56589;51.992;5.924;2023-08-30T02:44:53;7.82;;;5.05;;
69401;SDS011;56589;51.992;5.924;2023-08-30T02:47:20;12.07;;;5.45;;
69401;SDS011;56589;51.992;5.924;2023-08-30T02:49:45;7.18;;;5.38;;
69401;SDS011;56589;51.992;5.924;2023-08-30T02:52:14;7.32;;;5.68;;
69401;SDS011;56589;51.992;5.924;2023-08-30T02:54:40;9.40;;;5.32;;
69401;SDS011;56589;51.992;5.924;2023-08-30T02:57:06;12.63;;;6.13;;
69401;SDS011;56589;51.992;5.924;2023-08-30T02:59:34;7.82;;;5.47;;
69401;SDS011;56589;51.992;5.924;2023-08-30T03:02:00;7.43;;;5.72;;
69401;SDS011;56589;51.992;5.924;2023-08-30T03:04:28;6.57;;;5.18;;
69401;SDS011;56589;51.992;5.924;2023-08-30T03:06:54;9.98;;;6.40;;
69401;SDS011;56589;51.992;5.924;2023-08-30T03:09:23;7.30;;;5.28;;
69401;SDS011;56589;51.992;5.924;2023-08-30T03:11:50;10.02;;;6.28;;
69401;SDS011;56589;51.992;5.924;2023-08-30T03:14:16;6.30;;;4.85;;
69401;SDS011;56589;51.992;5.924;2023-08-30T03:16:42;8.70;;;5.95;;
69401;SDS011;56589;51.992;5.924;2023-08-30T03:19:08;9.05;;;5.65;;
69401;SDS011;56589;51.992;5.924;2023-08-30T03:21:34;9.25;;;6.38;;
69401;SDS011;56589;51.992;5.924;2023-08-30T03:24:00;9.98;;;5.97;;
69401;SDS011;56589;51.992;5.924;2023-08-30T03:26:31;8.73;;;5.88;;
69401;SDS011;56589;51.992;5.924;2023-08-30T03:28:57;7.82;;;5.85;;
69401;SDS011;56589;51.992;5.924;2023-08-30T03:31:25;9.25;;;6.22;;
69401;SDS011;56589;51.992;5.924;2023-08-30T03:33:51;9.13;;;6.43;;
69401;SDS011;56589;51.992;5.924;2023-08-30T03:36:18;10.43;;;6.03;;
69401;SDS011;56589;51.992;5.924;2023-08-30T03:38:44;8.60;;;6.28;;
69401;SDS011;56589;51.992;5.924;2023-08-30T03:41:11;10.88;;;6.32;;
69401;SDS011;56589;51.992;5.924;2023-08-30T03:43:40;9.52;;;6.10;;
69401;SDS011;56589;51.992;5.924;2023-08-30T03:46:08;9.02;;;6.07;;
69401;SDS011;56589;51.992;5.924;2023-08-30T03:48:34;10.27;;;7.45;;
69401;SDS011;56589;51.992;5.924;2023-08-30T03:51:02;10.45;;;6.90;;
69401;SDS011;56589;51.992;5.924;2023-08-30T03:53:30;11.25;;;6.78;;
69401;SDS011;56589;51.992;5.924;2023-08-30T03:55:57;9.05;;;5.95;;
69401;SDS011;56589;51.992;5.924;2023-08-30T03:58:26;9.90;;;6.63;;
69401;SDS011;56589;51.992;5.924;2023-08-30T04:00:55;9.88;;;6.63;;
69401;SDS011;56589;51.992;5.924;2023-08-30T04:03:24;9.70;;;6.68;;
69401;SDS011;56589;51.992;5.924;2023-08-30T04:05:54;9.27;;;6.28;;
69401;SDS011;56589;51.992;5.924;2023-08-30T04:08:22;9.93;;;6.97;;
69401;SDS011;56589;51.992;5.924;2023-08-30T04:10:48;11.23;;;7.50;;
69401;SDS011;56589;51.992;5.924;2023-08-30T04:13:17;11.15;;;7.63;;
69401;SDS011;56589;51.992;5.924;2023-08-30T04:15:44;12.30;;;7.78;;
69401;SDS011;56589;51.992;5.924;2023-08-30T04:18:13;11.07;;;7.63;;
69401;SDS011;56589;51.992;5.924;2023-08-30T04:20:43;10.70;;;8.00;;
69401;SDS011;56589;51.992;5.924;2023-08-30T04:23:10;9.20;;;6.95;;
69401;SDS011;56589;51.992;5.924;2023-08-30T04:25:36;10.68;;;8.25;;
69401;SDS011;56589;51.992;5.924;2023-08-30T04:28:04;15.48;;;8.13;;
69401;SDS011;56589;51.992;5.924;2023-08-30T04:30:30;12.93;;;8.40;;
69401;SDS011;56589;51.992;5.924;2023-08-30T04:32:57;13.50;;;7.72;;
69401;SDS011;56589;51.992;5.924;2023-08-30T04:35:27;14.05;;;8.50;;
69401;SDS011;56589;51.992;5.924;2023-08-30T04:37:54;12.95;;;8.18;;
69401;SDS011;56589;51.992;5.924;2023-08-30T04:40:20;12.43;;;7.72;;
69401;SDS011;56589;51.992;5.924;2023-08-30T04:42:46;15.60;;;8.45;;
69401;SDS011;56589;51.992;5.924;2023-08-30T04:45:12;13.32;;;8.15;;
69401;SDS011;56589;51.992;5.924;2023-08-30T04:47:38;11.38;;;7.35;;
69401;SDS011;56589;51.992;5.924;2023-08-30T04:50:05;11.68;;;7.82;;
69401;SDS011;56589;51.992;5.924;2023-08-30T04:52:37;13.18;;;8.40;;
69401;SDS011;56589;51.992;5.924;2023-08-30T04:55:03;11.25;;;7.95;;
69401;SDS011;56589;51.992;5.924;2023-08-30T04:57:33;11.80;;;7.88;;
69401;SDS011;56589;51.992;5.924;2023-08-30T04:59:59;11.00;;;7.70;;
69401;SDS011;56589;51.992;5.924;2023-08-30T05:02:28;11.68;;;7.38;;
69401;SDS011;56589;51.992;5.924;2023-08-30T05:04:57;15.30;;;8.43;;
69401;SDS011;56589;51.992;5.924;2023-08-30T05:07:25;11.88;;;7.80;;
69401;SDS011;56589;51.992;5.924;2023-08-30T05:09:54;14.00;;;8.07;;
69401;SDS011;56589;51.992;5.924;2023-08-30T05:12:21;11.55;;;8.43;;
69401;SDS011;56589;51.992;5.924;2023-08-30T05:14:48;12.50;;;7.70;;
69401;SDS011;56589;51.992;5.924;2023-08-30T05:17:14;16.27;;;8.30;;
69401;SDS011;56589;51.992;5.924;2023-08-30T05:19:40;10.50;;;7.38;;
69401;SDS011;56589;51.992;5.924;2023-08-30T05:22:06;14.18;;;8.25;;
69401;SDS011;56589;51.992;5.924;2023-08-30T05:24:32;13.50;;;8.95;;
69401;SDS011;56589;51.992;5.924;2023-08-30T05:27:02;12.98;;;8.57;;
69401;SDS011;56589;51.992;5.924;2023-08-30T05:29:30;13.10;;;8.25;;
69401;SDS011;56589;51.992;5.924;2023-08-30T05:31:58;13.68;;;8.30;;
69401;SDS011;56589;51.992;5.924;2023-08-30T05:34:26;13.88;;;8.32;;
69401;SDS011;56589;51.992;5.924;2023-08-30T05:36:52;13.23;;;9.13;;
69401;SDS011;56589;51.992;5.924;2023-08-30T05:39:18;14.15;;;9.02;;
69401;SDS011;56589;51.992;5.924;2023-08-30T05:41:47;12.23;;;7.88;;
69401;SDS011;56589;51.992;5.924;2023-08-30T05:44:15;14.25;;;9.05;;
69401;SDS011;56589;51.992;5.924;2023-08-30T05:46:41;11.90;;;8.60;;
69401;SDS011;56589;51.992;5.924;2023-08-30T05:49:07;15.32;;;9.30;;
69401;SDS011;56589;51.992;5.924;2023-08-30T05:51:33;14.73;;;8.68;;
69401;SDS011;56589;51.992;5.924;2023-08-30T05:54:00;12.85;;;8.25;;
69401;SDS011;56589;51.992;5.924;2023-08-30T05:56:28;15.20;;;8.07;;
69401;SDS011;56589;51.992;5.924;2023-08-30T05:58:54;13.05;;;8.82;;
69401;SDS011;56589;51.992;5.924;2023-08-30T06:01:23;13.90;;;8.27;;
69401;SDS011;56589;51.992;5.924;2023-08-30T06:03:49;10.98;;;7.70;;
69401;SDS011;56589;51.992;5.924;2023-08-30T06:06:15;12.27;;;7.60;;
69401;SDS011;56589;51.992;5.924;2023-08-30T06:08:41;11.98;;;8.02;;
69401;SDS011;56589;51.992;5.924;2023-08-30T06:11:08;13.23;;;8.15;;
69401;SDS011;56589;51.992;5.924;2023-08-30T06:13:36;11.85;;;7.97;;
69401;SDS011;56589;51.992;5.924;2023-08-30T06:16:02;14.48;;;7.90;;
69401;SDS011;56589;51.992;5.924;2023-08-30T06:18:33;13.25;;;8.18;;
69401;SDS011;56589;51.992;5.924;2023-08-30T06:21:00;15.23;;;8.35;;
69401;SDS011;56589;51.992;5.924;2023-08-30T06:23:26;11.10;;;7.25;;
69401;SDS011;56589;51.992;5.924;2023-08-30T06:25:53;14.38;;;8.02;;
69401;SDS011;56589;51.992;5.924;2023-08-30T06:28:20;14.70;;;8.23;;
69401;SDS011;56589;51.992;5.924;2023-08-30T06:30:47;11.27;;;7.53;;
69401;SDS011;56589;51.992;5.924;2023-08-30T06:33:13;13.23;;;8.23;;
69401;SDS011;56589;51.992;5.924;2023-08-30T06:35:41;14.20;;;8.77;;
69401;SDS011;56589;51.992;5.924;2023-08-30T06:38:08;14.52;;;8.90;;
69401;SDS011;56589;51.992;5.924;2023-08-30T06:40:35;16.08;;;9.35;;
69401;SDS011;56589;51.992;5.924;2023-08-30T06:43:02;15.50;;;9.30;;
69401;SDS011;56589;51.992;5.924;2023-08-30T06:45:29;13.50;;;8.73;;
69401;SDS011;56589;51.992;5.924;2023-08-30T06:47:55;15.00;;;8.40;;
69401;SDS011;56589;51.992;5.924;2023-08-30T06:50:24;14.43;;;8.65;;
69401;SDS011;56589;51.992;5.924;2023-08-30T06:52:53;12.90;;;8.35;;
69401;SDS011;56589;51.992;5.924;2023-08-30T06:55:20;12.98;;;8.43;;
69401;SDS011;56589;51.992;5.924;2023-08-30T06:57:47;16.13;;;9.32;;
69401;SDS011;56589;51.992;5.924;2023-08-30T07:00:14;15.00;;;8.55;;
69401;SDS011;56589;51.992;5.924;2023-08-30T07:02:42;14.50;;;7.95;;
69401;SDS011;56589;51.992;5.924;2023-08-30T07:05:09;16.13;;;9.13;;
69401;SDS011;56589;51.992;5.924;2023-08-30T07:07:35;13.20;;;9.50;;
69401;SDS011;56589;51.992;5.924;2023-08-30T07:10:04;12.98;;;8.35;;
69401;SDS011;56589;51.992;5.924;2023-08-30T07:12:31;13.65;;;8.25;;
69401;SDS011;56589;51.992;5.924;2023-08-30T07:14:58;12.15;;;8.38;;
69401;SDS011;56589;51.992;5.924;2023-08-30T07:17:27;12.00;;;8.55;;
69401;SDS011;56589;51.992;5.924;2023-08-30T07:19:53;10.98;;;9.00;;
69401;SDS011;56589;51.992;5.924;2023-08-30T07:22:20;12.63;;;8.63;;
69401;SDS011;56589;51.992;5.924;2023-08-30T07:24:46;12.98;;;8.52;;
69401;SDS011;56589;51.992;5.924;2023-08-30T07:27:15;13.30;;;8.65;;
69401;SDS011;56589;51.992;5.924;2023-08-30T07:29:41;15.38;;;8.38;;
69401;SDS011;56589;51.992;5.924;2023-08-30T07:32:09;11.15;;;7.97;;
69401;SDS011;56589;51.992;5.924;2023-08-30T07:34:37;11.90;;;8.05;;
69401;SDS011;56589;51.992;5.924;2023-08-30T07:37:03;12.85;;;7.82;;
69401;SDS011;56589;51.992;5.924;2023-08-30T07:39:41;12.30;;;8.25;;
69401;SDS011;56589;51.992;5.924;2023-08-30T07:42:07;11.30;;;8.70;;
69401;SDS011;56589;51.992;5.924;2023-08-30T07:44:35;14.95;;;7.78;;
69401;SDS011;56589;51.992;5.924;2023-08-30T07:47:02;15.77;;;9.52;;
69401;SDS011;56589;51.992;5.924;2023-08-30T07:49:30;11.38;;;7.78;;
69401;SDS011;56589;51.992;5.924;2023-08-30T07:51:56;18.92;;;8.68;;
69401;SDS011;56589;51.992;5.924;2023-08-30T07:54:25;11.15;;;8.48;;
69401;SDS011;56589;51.992;5.924;2023-08-30T07:56:51;11.43;;;7.95;;
69401;SDS011;56589;51.992;5.924;2023-08-30T07:59:17;13.13;;;7.97;;
69401;SDS011;56589;51.992;5.924;2023-08-30T08:01:45;12.32;;;8.05;;
69401;SDS011;56589;51.992;5.924;2023-08-30T08:04:11;12.65;;;7.88;;
69401;SDS011;56589;51.992;5.924;2023-08-30T08:06:38;12.80;;;8.00;;
69401;SDS011;56589;51.992;5.924;2023-08-30T08:09:04;14.52;;;8.10;;
69401;SDS011;56589;51.992;5.924;2023-08-30T08:11:30;17.10;;;8.55;;
69401;SDS011;56589;51.992;5.924;2023-08-30T08:13:58;17.23;;;7.78;;
69401;SDS011;56589;51.992;5.924;2023-08-30T08:16:24;14.77;;;8.23;;
69401;SDS011;56589;51.992;5.924;2023-08-30T08:18:53;14.98;;;8.93;;
69401;SDS011;56589;51.992;5.924;2023-08-30T08:21:19;14.45;;;7.60;;
69401;SDS011;56589;51.992;5.924;2023-08-30T08:23:45;14.57;;;7.68;;
69401;SDS011;56589;51.992;5.924;2023-08-30T08:26:11;10.73;;;7.75;;
69401;SDS011;56589;51.992;5.924;2023-08-30T08:28:37;12.48;;;7.47;;
69401;SDS011;56589;51.992;5.924;2023-08-30T08:31:03;16.00;;;8.13;;
69401;SDS011;56589;51.992;5.924;2023-08-30T08:33:29;13.10;;;8.10;;
69401;SDS011;56589;51.992;5.924;2023-08-30T08:35:59;12.18;;;7.78;;
69401;SDS011;56589;51.992;5.924;2023-08-30T08:38:27;11.82;;;7.65;;
69401;SDS011;56589;51.992;5.924;2023-08-30T08:40:54;10.45;;;6.55;;
69401;SDS011;56589;51.992;5.924;2023-08-30T08:43:30;12.30;;;7.22;;
69401;SDS011;56589;51.992;5.924;2023-08-30T08:45:59;11.88;;;6.63;;
69401;SDS011;56589;51.992;5.924;2023-08-30T08:48:29;10.77;;;7.07;;
69401;SDS011;56589;51.992;5.924;2023-08-30T08:51:07;12.02;;;7.63;;
69401;SDS011;56589;51.992;5.924;2023-08-30T08:53:35;14.35;;;8.10;;
69401;SDS011;56589;51.992;5.924;2023-08-30T08:56:03;11.32;;;7.80;;
69401;SDS011;56589;51.992;5.924;2023-08-30T08:58:33;14.23;;;8.15;;
69401;SDS011;56589;51.992;5.924;2023-08-30T09:01:03;12.60;;;8.02;;
69401;SDS011;56589;51.992;5.924;2023-08-30T09:03:33;13.60;;;8.38;;
69401;SDS011;56589;51.992;5.924;2023-08-30T09:05:59;13.65;;;8.70;;
69401;SDS011;56589;51.992;5.924;2023-08-30T09:08:31;11.38;;;8.15;;
69401;SDS011;56589;51.992;5.924;2023-08-30T09:10:58;13.00;;;7.97;;
69401;SDS011;56589;51.992;5.924;2023-08-30T09:13:27;11.95;;;8.40;;
69401;SDS011;56589;51.992;5.924;2023-08-30T09:15:53;13.50;;;8.02;;
69401;SDS011;56589;51.992;5.924;2023-08-30T09:18:20;13.73;;;9.27;;
69401;SDS011;56589;51.992;5.924;2023-08-30T09:20:47;12.43;;;8.82;;
69401;SDS011;56589;51.992;5.924;2023-08-30T09:23:16;12.52;;;8.52;;
69401;SDS011;56589;51.992;5.924;2023-08-30T09:25:46;13.65;;;8.35;;
69401;SDS011;56589;51.992;5.924;2023-08-30T09:28:19;10.57;;;8.23;;
69401;SDS011;56589;51.992;5.924;2023-08-30T09:30:48;11.23;;;8.80;;
69401;SDS011;56589;51.992;5.924;2023-08-30T09:33:15;12.68;;;8.30;;
69401;SDS011;56589;51.992;5.924;2023-08-30T09:35:45;12.52;;;7.88;;
69401;SDS011;56589;51.992;5.924;2023-08-30T09:38:15;11.55;;;7.10;;
69401;SDS011;56589;51.992;5.924;2023-08-30T09:40:42;12.00;;;8.00;;
69401;SDS011;56589;51.992;5.924;2023-08-30T09:43:11;8.73;;;6.97;;
69401;SDS011;56589;51.992;5.924;2023-08-30T09:45:38;9.60;;;7.13;;
69401;SDS011;56589;51.992;5.924;2023-08-30T09:48:05;9.80;;;6.90;;
69401;SDS011;56589;51.992;5.924;2023-08-30T09:50:33;10.55;;;6.80;;
69401;SDS011;56589;51.992;5.924;2023-08-30T09:53:01;8.85;;;6.57;;
69401;SDS011;56589;51.992;5.924;2023-08-30T09:55:33;9.60;;;6.57;;
69401;SDS011;56589;51.992;5.924;2023-08-30T09:58:04;7.60;;;5.93;;
69401;SDS011;56589;51.992;5.924;2023-08-30T10:00:32;8.48;;;6.63;;
69401;SDS011;56589;51.992;5.924;2023-08-30T10:03:00;6.05;;;5.45;;
69401;SDS011;56589;51.992;5.924;2023-08-30T10:05:28;10.02;;;6.38;;
69401;SDS011;56589;51.992;5.924;2023-08-30T10:07:57;6.93;;;5.70;;
69401;SDS011;56589;51.992;5.924;2023-08-30T10:10:25;6.65;;;5.45;;
69401;SDS011;56589;51.992;5.924;2023-08-30T10:12:52;8.75;;;6.20;;
69401;SDS011;56589;51.992;5.924;2023-08-30T10:15:24;12.82;;;6.50;;
69401;SDS011;56589;51.992;5.924;2023-08-30T10:17:57;8.70;;;5.60;;
69401;SDS011;56589;51.992;5.924;2023-08-30T10:20:27;9.50;;;6.35;;
69401;SDS011;56589;51.992;5.924;2023-08-30T10:22:54;8.60;;;5.90;;
69401;SDS011;56589;51.992;5.924;2023-08-30T10:25:24;7.38;;;6.40;;
69401;SDS011;56589;51.992;5.924;2023-08-30T10:27:57;8.70;;;6.30;;
69401;SDS011;56589;51.992;5.924;2023-08-30T10:30:29;7.40;;;6.53;;
69401;SDS011;56589;51.992;5.924;2023-08-30T10:32:57;8.02;;;6.00;;
69401;SDS011;56589;51.992;5.924;2023-08-30T10:35:25;9.00;;;6.03;;
69401;SDS011;56589;51.992;5.924;2023-08-30T10:37:55;8.85;;;6.70;;
69401;SDS011;56589;51.992;5.924;2023-08-30T10:40:25;9.10;;;6.53;;
69401;SDS011;56589;51.992;5.924;2023-08-30T10:43:01;9.60;;;6.82;;
69401;SDS011;56589;51.992;5.924;2023-08-30T10:45:32;9.13;;;6.90;;
69401;SDS011;56589;51.992;5.924;2023-08-30T10:48:00;9.98;;;6.53;;
69401;SDS011;56589;51.992;5.924;2023-08-30T10:50:29;7.03;;;5.60;;
69401;SDS011;56589;51.992;5.924;2023-08-30T10:52:57;8.25;;;6.18;;
69401;SDS011;56589;51.992;5.924;2023-08-30T10:55:25;11.77;;;6.85;;
69401;SDS011;56589;51.992;5.924;2023-08-30T10:57:58;11.35;;;6.22;;
69401;SDS011;56589;51.992;5.924;2023-08-30T11:00:29;7.28;;;6.10;;
69401;SDS011;56589;51.992;5.924;2023-08-30T11:02:58;7.82;;;6.80;;
69401;SDS011;56589;51.992;5.924;2023-08-30T11:05:28;8.48;;;6.80;;
69401;SDS011;56589;51.992;5.924;2023-08-30T11:07:55;9.98;;;6.47;;
69401;SDS011;56589;51.992;5.924;2023-08-30T11:10:23;8.93;;;6.80;;
69401;SDS011;56589;51.992;5.924;2023-08-30T11:12:50;9.18;;;7.95;;
69401;SDS011;56589;51.992;5.924;2023-08-30T11:15:16;8.23;;;7.22;;
69401;SDS011;56589;51.992;5.924;2023-08-30T11:17:45;10.18;;;8.35;;
69401;SDS011;56589;51.992;5.924;2023-08-30T11:20:13;9.05;;;7.95;;
69401;SDS011;56589;51.992;5.924;2023-08-30T11:22:41;9.68;;;7.80;;
69401;SDS011;56589;51.992;5.924;2023-08-30T11:25:10;8.75;;;7.85;;
69401;SDS011;56589;51.992;5.924;2023-08-30T11:27:38;8.95;;;8.02;;
69401;SDS011;56589;51.992;5.924;2023-08-30T11:30:06;9.55;;;8.55;;
69401;SDS011;56589;51.992;5.924;2023-08-30T11:32:36;9.10;;;7.82;;
69401;SDS011;56589;51.992;5.924;2023-08-30T11:35:07;9.07;;;7.70;;
69401;SDS011;56589;51.992;5.924;2023-08-30T11:37:43;9.10;;;7.55;;
69401;SDS011;56589;51.992;5.924;2023-08-30T11:40:10;7.53;;;6.70;;
69401;SDS011;56589;51.992;5.924;2023-08-30T11:42:37;6.70;;;5.95;;
69401;SDS011;56589;51.992;5.924;2023-08-30T11:45:06;8.38;;;5.90;;
69401;SDS011;56589;51.992;5.924;2023-08-30T11:47:35;5.68;;;4.90;;
69401;SDS011;56589;51.992;5.924;2023-08-30T11:50:08;7.28;;;4.90;;
69401;SDS011;56589;51.992;5.924;2023-08-30T11:52:36;5.22;;;4.70;;
69401;SDS011;56589;51.992;5.924;2023-08-30T11:55:03;7.05;;;4.60;;
69401;SDS011;56589;51.992;5.924;2023-08-30T11:57:32;7.47;;;4.13;;
69401;SDS011;56589;51.992;5.924;2023-08-30T12:00:06;5.45;;;3.92;;
69401;SDS011;56589;51.992;5.924;2023-08-30T12:02:35;7.93;;;4.10;;
69401;SDS011;56589;51.992;5.924;2023-08-30T12:05:02;5.82;;;4.28;;
69401;SDS011;56589;51.992;5.924;2023-08-30T12:07:31;5.45;;;4.05;;
69401;SDS011;56589;51.992;5.924;2023-08-30T12:10:03;5.53;;;3.75;;
69401;SDS011;56589;51.992;5.924;2023-08-30T12:12:30;5.80;;;3.75;;
69401;SDS011;56589;51.992;5.924;2023-08-30T12:14:57;4.55;;;3.35;;
69401;SDS011;56589;51.992;5.924;2023-08-30T12:17:25;5.50;;;3.60;;
69401;SDS011;56589;51.992;5.924;2023-08-30T12:19:58;5.20;;;3.72;;
69401;SDS011;56589;51.992;5.924;2023-08-30T12:22:38;5.90;;;3.20;;
69401;SDS011;56589;51.992;5.924;2023-08-30T12:25:15;5.15;;;3.05;;
69401;SDS011;56589;51.992;5.924;2023-08-30T12:27:42;5.82;;;2.47;;
69401;SDS011;56589;51.992;5.924;2023-08-30T12:30:09;10.20;;;2.25;;
69401;SDS011;56589;51.992;5.924;2023-08-30T12:32:37;5.35;;;2.67;;
69401;SDS011;56589;51.992;5.924;2023-08-30T12:35:03;8.00;;;2.25;;
69401;SDS011;56589;51.992;5.924;2023-08-30T12:37:30;4.10;;;2.28;;
69401;SDS011;56589;51.992;5.924;2023-08-30T12:39:59;8.80;;;2.30;;
69401;SDS011;56589;51.992;5.924;2023-08-30T12:42:28;7.28;;;2.70;;
69401;SDS011;56589;51.992;5.924;2023-08-30T12:44:54;5.07;;;2.03;;
69401;SDS011;56589;51.992;5.924;2023-08-30T12:47:20;8.35;;;2.50;;
69401;SDS011;56589;51.992;5.924;2023-08-30T12:49:46;7.28;;;2.25;;
69401;SDS011;56589;51.992;5.924;2023-08-30T12:52:16;4.90;;;1.92;;
69401;SDS011;56589;51.992;5.924;2023-08-30T12:54:41;6.78;;;2.20;;
69401;SDS011;56589;51.992;5.924;2023-08-30T12:57:10;6.75;;;2.50;;
69401;SDS011;56589;51.992;5.924;2023-08-30T12:59:37;5.70;;;1.95;;
69401;SDS011;56589;51.992;5.924;2023-08-30T13:02:04;6.18;;;1.73;;
69401;SDS011;56589;51.992;5.924;2023-08-30T13:04:31;7.03;;;1.98;;
69401;SDS011;56589;51.992;5.924;2023-08-30T13:06:57;5.13;;;2.00;;
69401;SDS011;56589;51.992;5.924;2023-08-30T13:09:26;3.83;;;1.50;;
69401;SDS011;56589;51.992;5.924;2023-08-30T13:11:52;8.68;;;2.10;;
69401;SDS011;56589;51.992;5.924;2023-08-30T13:14:20;8.98;;;1.88;;
69401;SDS011;56589;51.992;5.924;2023-08-30T13:16:46;8.30;;;1.83;;
69401;SDS011;56589;51.992;5.924;2023-08-30T13:19:12;8.48;;;2.10;;
69401;SDS011;56589;51.992;5.924;2023-08-30T13:21:39;12.95;;;2.90;;
69401;SDS011;56589;51.992;5.924;2023-08-30T13:24:06;5.88;;;1.95;;
69401;SDS011;56589;51.992;5.924;2023-08-30T13:26:35;7.97;;;1.88;;
69401;SDS011;56589;51.992;5.924;2023-08-30T13:29:01;9.27;;;2.35;;
69401;SDS011;56589;51.992;5.924;2023-08-30T13:31:33;7.47;;;2.15;;
69401;SDS011;56589;51.992;5.924;2023-08-30T13:33:59;5.93;;;1.88;;
69401;SDS011;56589;51.992;5.924;2023-08-30T13:36:28;6.28;;;1.92;;
69401;SDS011;56589;51.992;5.924;2023-08-30T13:38:54;7.18;;;1.83;;
69401;SDS011;56589;51.992;5.924;2023-08-30T13:41:20;9.70;;;1.92;;
69401;SDS011;56589;51.992;5.924;2023-08-30T13:43:46;8.32;;;2.10;;
69401;SDS011;56589;51.992;5.924;2023-08-30T13:46:12;5.18;;;1.48;;
69401;SDS011;56589;51.992;5.924;2023-08-30T13:48:41;10.25;;;2.25;;
69401;SDS011;56589;51.992;5.924;2023-08-30T13:51:07;10.25;;;2.00;;
69401;SDS011;56589;51.992;5.924;2023-08-30T13:53:33;8.82;;;1.48;;
69401;SDS011;56589;51.992;5.924;2023-08-30T13:55:59;7.57;;;2.10;;
69401;SDS011;56589;51.992;5.924;2023-08-30T13:58:28;8.02;;;1.67;;
69401;SDS011;56589;51.992;5.924;2023-08-30T14:00:54;7.75;;;1.77;;
69401;SDS011;56589;51.992;5.924;2023-08-30T14:03:20;4.97;;;1.65;;
69401;SDS011;56589;51.992;5.924;2023-08-30T14:05:49;10.27;;;1.98;;
69401;SDS011;56589;51.992;5.924;2023-08-30T14:08:15;5.70;;;2.30;;
69401;SDS011;56589;51.992;5.924;2023-08-30T14:10:42;6.47;;;1.52;;
69401;SDS011;56589;51.992;5.924;2023-08-30T14:13:08;5.80;;;1.45;;
69401;SDS011;56589;51.992;5.924;2023-08-30T14:15:34;6.28;;;1.42;;
69401;SDS011;56589;51.992;5.924;2023-08-30T14:18:04;5.22;;;1.50;;
69401;SDS011;56589;51.992;5.924;2023-08-30T14:20:33;6.47;;;1.42;;
69401;SDS011;56589;51.992;5.924;2023-08-30T14:23:03;7.22;;;1.63;;
69401;SDS011;56589;51.992;5.924;2023-08-30T14:25:30;8.65;;;1.70;;
69401;SDS011;56589;51.992;5.924;2023-08-30T14:27:57;6.00;;;1.50;;
69401;SDS011;56589;51.992;5.924;2023-08-30T14:30:26;3.65;;;1.27;;
69401;SDS011;56589;51.992;5.924;2023-08-30T14:32:53;6.43;;;1.95;;
69401;SDS011;56589;51.992;5.924;2023-08-30T14:35:19;7.50;;;1.40;;
69401;SDS011;56589;51.992;5.924;2023-08-30T14:37:47;5.25;;;1.38;;
69401;SDS011;56589;51.992;5.924;2023-08-30T14:40:16;5.75;;;1.67;;
69401;SDS011;56589;51.992;5.924;2023-08-30T14:42:44;7.95;;;1.52;;
69401;SDS011;56589;51.992;5.924;2023-08-30T14:45:11;8.50;;;1.33;;